createdAt,value
2022-10-19T00:00:39.351Z,1009
2022-10-19T00:01:56.382Z,1008.9
2022-10-19T00:03:13.326Z,1008.9
2022-10-19T00:04:30.320Z,1009
2022-10-19T00:05:47.355Z,1008.9
2022-10-19T00:07:04.338Z,1008.9
2022-10-19T00:08:21.315Z,1008.9
2022-10-19T00:09:38.351Z,1008.9
2022-10-19T00:10:55.328Z,1008.9
2022-10-19T00:12:12.357Z,1008.9
2022-10-19T00:13:29.326Z,1008.9
2022-10-19T00:14:46.362Z,1008.9
2022-10-19T00:16:04.245Z,1009
2022-10-19T00:17:20.342Z,1009
2022-10-19T00:18:37.332Z,1008.9
2022-10-19T00:19:54.335Z,1008.9
2022-10-19T00:21:11.321Z,1008.9
2022-10-19T00:22:28.378Z,1008.9
2022-10-19T00:23:45.334Z,1009
2022-10-19T00:25:02.846Z,1008.9
2022-10-19T00:26:20.354Z,1008.9
2022-10-19T00:27:37.390Z,1008.9
2022-10-19T00:28:54.441Z,1009
2022-10-19T00:30:11.394Z,1009
2022-10-19T00:31:28.376Z,1009
2022-10-19T00:32:45.358Z,1009
2022-10-19T00:34:02.408Z,1009
2022-10-19T00:35:29.183Z,1009
2022-10-19T00:36:46.366Z,1009
2022-10-19T00:38:03.408Z,1008.9
2022-10-19T00:39:20.359Z,1008.9
2022-10-19T00:40:37.385Z,1009
2022-10-19T00:41:54.434Z,1008.9
2022-10-19T00:43:11.402Z,1009
2022-10-19T00:44:28.366Z,1008.9
2022-10-19T00:45:45.363Z,1008.9
2022-10-19T00:47:02.460Z,1008.8
2022-10-19T00:48:19.400Z,1008.8
2022-10-19T00:49:36.366Z,1008.8
2022-10-19T00:50:53.384Z,1008.8
2022-10-19T00:52:10.384Z,1008.9
2022-10-19T00:53:27.428Z,1008.9
2022-10-19T00:54:44.374Z,1008.9
2022-10-19T00:56:01.431Z,1008.9
2022-10-19T00:57:18.378Z,1008.9
2022-10-19T00:58:35.448Z,1008.9
2022-10-19T00:59:52.386Z,1008.9
2022-10-19T01:01:09.472Z,1008.9
2022-10-19T01:02:26.476Z,1008.9
2022-10-19T01:03:43.426Z,1008.9
2022-10-19T01:05:00.480Z,1008.9
2022-10-19T01:06:17.429Z,1008.9
2022-10-19T01:07:34.698Z,1008.9
2022-10-19T01:08:51.701Z,1008.9
2022-10-19T01:10:08.489Z,1008.9
2022-10-19T01:11:25.414Z,1008.9
2022-10-19T01:12:42.417Z,1008.9
2022-10-19T01:13:59.446Z,1008.9
2022-10-19T01:15:16.472Z,1008.9
2022-10-19T01:16:33.451Z,1008.8
2022-10-19T01:17:50.474Z,1008.8
2022-10-19T01:19:07.453Z,1008.8
2022-10-19T01:20:24.438Z,1008.8
2022-10-19T01:21:41.422Z,1008.8
2022-10-19T01:22:58.422Z,1008.8
2022-10-19T01:24:15.427Z,1008.8
2022-10-19T01:25:32.485Z,1008.8
2022-10-19T01:26:49.459Z,1008.7
2022-10-19T01:28:06.440Z,1008.7
2022-10-19T01:29:24.299Z,1008.7
2022-10-19T01:30:41.490Z,1008.7
2022-10-19T01:31:58.440Z,1008.7
2022-10-19T01:33:15.467Z,1008.7
2022-10-19T01:34:32.550Z,1008.7
2022-10-19T01:35:50.379Z,1008.7
2022-10-19T01:37:07.440Z,1008.7
2022-10-19T01:38:24.463Z,1008.7
2022-10-19T01:39:42.644Z,1008.7
2022-10-19T01:40:58.467Z,1008.7
2022-10-19T01:42:15.442Z,1008.7
2022-10-19T01:43:32.451Z,1008.7
2022-10-19T01:44:50.335Z,1008.7
2022-10-19T01:46:07.459Z,1008.8
2022-10-19T01:47:24.517Z,1008.7
2022-10-19T01:48:41.790Z,1008.7
2022-10-19T01:49:59.613Z,1008.7
2022-10-19T01:51:16.464Z,1008.7
2022-10-19T01:52:33.783Z,1008.7
2022-10-19T01:53:50.469Z,1008.7
2022-10-19T01:55:07.512Z,1008.7
2022-10-19T01:56:24.471Z,1008.8
2022-10-19T01:57:41.500Z,1008.7
2022-10-19T01:58:58.480Z,1008.7
2022-10-19T02:00:15.516Z,1008.7
2022-10-19T02:01:32.518Z,1008.7
2022-10-19T02:02:49.478Z,1008.7
2022-10-19T02:04:07.031Z,1008.7
2022-10-19T02:05:24.520Z,1008.7
2022-10-19T02:06:41.492Z,1008.7
2022-10-19T02:07:58.570Z,1008.6
2022-10-19T02:09:16.374Z,1008.7
2022-10-19T02:10:33.542Z,1008.7
2022-10-19T02:11:51.290Z,1008.7
2022-10-19T02:13:07.529Z,1008.6
2022-10-19T02:14:24.545Z,1008.6
2022-10-19T02:15:42.041Z,1008.6
2022-10-19T02:17:00.650Z,1008.6
2022-10-19T02:18:18.391Z,1008.5
2022-10-19T02:19:35.649Z,1008.5
2022-10-19T02:20:52.624Z,1008.5
2022-10-19T02:22:09.560Z,1008.5
2022-10-19T02:23:26.509Z,1008.6
2022-10-19T02:24:43.532Z,1008.6
2022-10-19T02:26:00.555Z,1008.5
2022-10-19T02:27:17.527Z,1008.5
2022-10-19T02:28:34.551Z,1008.5
2022-10-19T02:29:51.524Z,1008.5
2022-10-19T02:31:08.561Z,1008.5
2022-10-19T02:32:25.523Z,1008.5
2022-10-19T02:33:43.353Z,1008.6
2022-10-19T02:35:00.555Z,1008.5
2022-10-19T02:36:18.332Z,1008.5
2022-10-19T02:38:53.669Z,1008.5
2022-10-19T02:40:10.548Z,1008.5
2022-10-19T02:41:28.603Z,1008.6
2022-10-19T02:42:45.545Z,1008.6
2022-10-19T02:44:03.597Z,1008.5
2022-10-19T02:45:20.535Z,1008.5
2022-10-19T02:46:38.396Z,1008.5
2022-10-19T02:47:55.547Z,1008.5
2022-10-19T02:49:13.063Z,1008.5
2022-10-19T02:50:30.570Z,1008.5
2022-10-19T02:51:48.310Z,1008.5
2022-10-19T02:53:05.601Z,1008.5
2022-10-19T02:54:23.339Z,1008.5
2022-10-19T02:56:57.570Z,1008.5
2022-10-19T02:58:14.614Z,1008.5
2022-10-19T02:59:31.631Z,1008.5
2022-10-19T03:00:48.673Z,1008.5
2022-10-19T03:02:05.682Z,1008.5
2022-10-19T03:03:22.634Z,1008.5
2022-10-19T03:04:39.622Z,1008.4
2022-10-19T03:05:56.599Z,1008.4
2022-10-19T03:07:13.570Z,1008.4
2022-10-19T03:08:31.664Z,1008.5
2022-10-19T03:09:48.644Z,1008.5
2022-10-19T03:11:05.573Z,1008.4
2022-10-19T03:12:23.351Z,1008.4
2022-10-19T03:13:40.678Z,1008.4
2022-10-19T03:14:58.722Z,1008.4
2022-10-19T03:16:15.623Z,1008.4
2022-10-19T03:17:33.714Z,1008.4
2022-10-19T03:18:50.593Z,1008.4
2022-10-19T03:20:07.607Z,1008.4
2022-10-19T03:21:24.646Z,1008.4
2022-10-19T03:22:41.682Z,1008.4
2022-10-19T03:23:59.379Z,1008.3
2022-10-19T03:25:16.711Z,1008.3
2022-10-19T03:26:33.646Z,1008.3
2022-10-19T03:27:50.640Z,1008.4
2022-10-19T03:29:07.832Z,1008.4
2022-10-19T03:30:24.612Z,1008.4
2022-10-19T03:31:41.705Z,1008.4
2022-10-19T03:32:58.719Z,1008.4
2022-10-19T03:34:15.657Z,1008.4
2022-10-19T03:35:32.654Z,1008.3
2022-10-19T03:36:49.654Z,1008.3
2022-10-19T03:38:06.674Z,1008.3
2022-10-19T03:39:23.631Z,1008.3
2022-10-19T03:40:40.699Z,1008.3
2022-10-19T03:41:58.464Z,1008.3
2022-10-19T03:43:15.686Z,1008.3
2022-10-19T03:44:32.644Z,1008.3
2022-10-19T03:45:49.660Z,1008.3
2022-10-19T03:47:06.623Z,1008.3
2022-10-19T03:48:23.743Z,1008.3
2022-10-19T03:49:40.638Z,1008.3
2022-10-19T03:50:57.652Z,1008.3
2022-10-19T03:52:15.282Z,1008.3
2022-10-19T03:53:33.900Z,1008.3
2022-10-19T03:54:50.629Z,1008.3
2022-10-19T03:56:08.386Z,1008.3
2022-10-19T03:57:25.645Z,1008.3
2022-10-19T03:58:42.704Z,1008.3
2022-10-19T03:59:59.661Z,1008.3
2022-10-19T04:01:16.719Z,1008.3
2022-10-19T04:02:33.703Z,1008.2
2022-10-19T04:03:50.654Z,1008.2
2022-10-19T04:05:07.697Z,1008.3
2022-10-19T04:06:25.658Z,1008.3
2022-10-19T04:07:43.392Z,1008.3
2022-10-19T04:09:00.672Z,1008.2
2022-10-19T04:10:17.661Z,1008.3
2022-10-19T04:11:34.694Z,1008.3
2022-10-19T04:12:53.743Z,1008.3
2022-10-19T04:15:25.680Z,1008.3
2022-10-19T04:16:42.700Z,1008.3
2022-10-19T04:17:59.700Z,1008.3
2022-10-19T04:19:16.685Z,1008.3
2022-10-19T04:20:33.743Z,1008.3
2022-10-19T04:21:50.770Z,1008.3
2022-10-19T04:23:07.829Z,1008.4
2022-10-19T04:24:25.508Z,1008.4
2022-10-19T04:25:43.407Z,1008.4
2022-10-19T04:27:00.692Z,1008.4
2022-10-19T04:28:17.799Z,1008.4
2022-10-19T04:29:35.757Z,1008.4
2022-10-19T04:30:52.780Z,1008.5
2022-10-19T04:32:09.706Z,1008.4
2022-10-19T04:33:26.743Z,1008.4
2022-10-19T04:34:43.724Z,1008.4
2022-10-19T04:36:00.731Z,1008.4
2022-10-19T04:37:18.840Z,1008.4
2022-10-19T04:38:35.856Z,1008.4
2022-10-19T04:39:52.696Z,1008.3
2022-10-19T04:47:01.813Z,1008.4
2022-10-19T04:48:18.751Z,1008.4
2022-10-19T04:49:35.778Z,1008.4
2022-10-19T04:50:52.801Z,1008.4
2022-10-19T04:52:09.813Z,1008.4
2022-10-19T04:53:26.786Z,1008.4
2022-10-19T04:54:43.797Z,1008.3
2022-10-19T04:56:00.744Z,1008.4
2022-10-19T04:57:17.755Z,1008.4
2022-10-19T04:58:35.749Z,1008.4
2022-10-19T04:59:52.813Z,1008.3
2022-10-19T05:01:09.789Z,1008.4
2022-10-19T05:02:26.741Z,1008.4
2022-10-19T05:03:43.785Z,1008.4
2022-10-19T05:05:00.781Z,1008.4
2022-10-19T05:06:18.764Z,1008.4
2022-10-19T05:07:36.063Z,1008.4
2022-10-19T05:08:52.846Z,1008.4
2022-10-19T05:10:09.826Z,1008.4
2022-10-19T05:11:26.775Z,1008.4
2022-10-19T05:12:43.772Z,1008.4
2022-10-19T05:14:00.811Z,1008.3
2022-10-19T05:15:17.783Z,1008.3
2022-10-19T05:16:35.762Z,1008.3
2022-10-19T05:17:52.768Z,1008.3
2022-10-19T05:19:09.816Z,1008.3
2022-10-19T05:20:26.773Z,1008.3
2022-10-19T05:21:43.768Z,1008.3
2022-10-19T05:23:04.567Z,1008.3
2022-10-19T05:24:17.801Z,1008.4
2022-10-19T05:25:35.874Z,1008.4
2022-10-19T05:26:52.785Z,1008.4
2022-10-19T05:28:09.805Z,1008.5
2022-10-19T05:29:26.818Z,1008.4
2022-10-19T05:30:48.193Z,1008.4
2022-10-19T05:32:00.789Z,1008.4
2022-10-19T05:33:17.798Z,1008.4
2022-10-19T05:34:34.826Z,1008.4
2022-10-19T05:35:51.813Z,1008.4
2022-10-19T05:37:08.795Z,1008.4
2022-10-19T05:38:25.828Z,1008.4
2022-10-19T05:39:42.822Z,1008.4
2022-10-19T05:40:59.827Z,1008.4
2022-10-19T05:42:16.820Z,1008.4
2022-10-19T05:43:33.834Z,1008.5
2022-10-19T05:44:50.850Z,1008.5
2022-10-19T05:46:07.850Z,1008.5
2022-10-19T05:47:27.303Z,1008.5
2022-10-19T05:48:43.011Z,1008.5
2022-10-19T05:49:59.833Z,1008.5
2022-10-19T05:51:16.824Z,1008.5
2022-10-19T05:52:33.831Z,1008.5
2022-10-19T05:53:50.899Z,1008.6
2022-10-19T05:55:07.938Z,1008.6
2022-10-19T05:56:24.851Z,1008.6
2022-10-19T05:57:41.828Z,1008.6
2022-10-19T05:58:58.861Z,1008.7
2022-10-19T06:00:15.899Z,1008.6
2022-10-19T06:01:32.925Z,1008.7
2022-10-19T06:02:49.870Z,1008.6
2022-10-19T06:04:07.030Z,1008.7
2022-10-19T06:05:23.845Z,1008.7
2022-10-19T06:06:40.878Z,1008.7
2022-10-19T06:07:57.835Z,1008.7
2022-10-19T06:09:14.879Z,1008.7
2022-10-19T06:10:31.859Z,1008.8
2022-10-19T06:11:48.916Z,1008.8
2022-10-19T06:13:05.854Z,1008.8
2022-10-19T06:14:22.895Z,1008.8
2022-10-19T06:15:39.855Z,1008.8
2022-10-19T06:16:56.896Z,1008.8
2022-10-19T06:18:13.904Z,1008.7
2022-10-19T06:19:31.942Z,1008.7
2022-10-19T06:20:48.875Z,1008.8
2022-10-19T06:22:05.902Z,1008.8
2022-10-19T06:23:22.858Z,1008.8
2022-10-19T06:24:39.961Z,1008.8
2022-10-19T06:25:56.869Z,1008.8
2022-10-19T06:27:14.022Z,1008.8
2022-10-19T06:28:30.898Z,1008.9
2022-10-19T06:29:47.907Z,1008.9
2022-10-19T06:31:06.056Z,1008.9
2022-10-19T06:32:21.890Z,1008.9
2022-10-19T06:33:38.952Z,1009
2022-10-19T06:34:56.507Z,1008.9
2022-10-19T06:36:13.504Z,1008.9
2022-10-19T06:37:31.088Z,1008.9
2022-10-19T06:38:47.936Z,1008.9
2022-10-19T06:40:07.168Z,1008.9
2022-10-19T06:41:21.910Z,1008.9
2022-10-19T06:42:38.947Z,1008.9
2022-10-19T06:43:57.267Z,1008.9
2022-10-19T06:45:14.989Z,1008.9
2022-10-19T06:46:31.946Z,1008.9
2022-10-19T06:47:48.995Z,1008.9
2022-10-19T06:49:05.975Z,1008.9
2022-10-19T06:50:22.972Z,1008.9
2022-10-19T06:51:40.201Z,1009
2022-10-19T06:52:56.967Z,1008.9
2022-10-19T06:54:13.940Z,1008.9
2022-10-19T06:55:30.913Z,1008.9
2022-10-19T06:58:04.959Z,1009
2022-10-19T06:59:21.949Z,1009
2022-10-19T07:00:38.996Z,1009
2022-10-19T07:01:55.923Z,1008.9
2022-10-19T07:03:12.931Z,1008.9
2022-10-19T07:04:30.014Z,1008.9
2022-10-19T07:05:46.957Z,1008.9
2022-10-19T07:07:03.961Z,1008.9
2022-10-19T07:08:20.929Z,1008.9
2022-10-19T07:09:37.990Z,1009
2022-10-19T07:10:54.985Z,1009
2022-10-19T07:12:11.974Z,1009
2022-10-19T07:13:29.019Z,1009
2022-10-19T07:14:46.200Z,1009.1
2022-10-19T07:16:02.977Z,1009.1
2022-10-19T07:17:19.938Z,1009
2022-10-19T07:18:36.961Z,1008.7
2022-10-19T07:19:54.010Z,1008.5
2022-10-19T07:21:11.095Z,1008.8
2022-10-19T07:22:28.410Z,1008.9
2022-10-19T07:23:44.994Z,1009
2022-10-19T07:25:02.145Z,1009.1
2022-10-19T07:26:18.967Z,1009.1
2022-10-19T07:27:37.712Z,1009.1
2022-10-19T07:28:52.985Z,1009.1
2022-10-19T07:30:10.044Z,1009.1
2022-10-19T07:31:27.033Z,1009.1
2022-10-19T07:32:46.869Z,1009.1
2022-10-19T07:34:00.948Z,1009.1
2022-10-19T07:35:17.998Z,1009.2
2022-10-19T07:36:34.965Z,1009.2
2022-10-19T07:37:51.972Z,1009.2
2022-10-19T07:39:08.964Z,1009.3
2022-10-19T07:40:25.994Z,1009.2
2022-10-19T07:41:42.973Z,1009.2
2022-10-19T07:42:59.978Z,1009.2
2022-10-19T07:44:17.029Z,1009.2
2022-10-19T07:45:34.170Z,1009.1
2022-10-19T07:46:50.990Z,1009.2
2022-10-19T07:48:08.197Z,1009.2
2022-10-19T07:49:24.985Z,1009.2
2022-10-19T07:50:42.017Z,1009.2
2022-10-19T07:51:59.040Z,1009.3
2022-10-19T07:53:16.065Z,1009.3
2022-10-19T07:54:33.017Z,1009.3
2022-10-19T07:55:50.045Z,1009.3
2022-10-19T07:57:07.468Z,1009.3
2022-10-19T07:58:25.105Z,1009.3
2022-10-19T07:59:42.091Z,1009.3
2022-10-19T08:00:59.043Z,1009.3
2022-10-19T08:02:16.263Z,1009.3
2022-10-19T08:05:01.002Z,1009.3
2022-10-19T08:06:07.124Z,1009.3
2022-10-19T08:07:24.050Z,1009.3
2022-10-19T08:08:41.076Z,1009.3
2022-10-19T08:09:58.079Z,1009.3
2022-10-19T08:11:15.193Z,1009.3
2022-10-19T08:12:32.369Z,1009.2
2022-10-19T08:13:49.030Z,1009.2
2022-10-19T08:15:06.268Z,1009.2
2022-10-19T08:16:23.064Z,1009.2
2022-10-19T08:17:40.023Z,1009.3
2022-10-19T08:18:57.043Z,1009.3
2022-10-19T08:20:14.027Z,1009.3
2022-10-19T08:21:31.035Z,1009.3
2022-10-19T08:22:47.981Z,1009.3
2022-10-19T08:24:05.030Z,1009.3
2022-10-19T08:25:22.365Z,1009.4
2022-10-19T08:26:39.091Z,1009.4
2022-10-19T08:27:56.107Z,1009.4
2022-10-19T08:29:13.026Z,1009.4
2022-10-19T08:30:30.096Z,1009.3
2022-10-19T08:31:46.985Z,1009.4
2022-10-19T08:33:04.119Z,1009.3
2022-10-19T08:34:21.163Z,1009.3
2022-10-19T08:35:38.045Z,1009.3
2022-10-19T08:36:55.216Z,1009.3
2022-10-19T08:38:12.040Z,1009.2
2022-10-19T08:39:29.021Z,1009.2
2022-10-19T08:40:46.023Z,1009.2
2022-10-19T08:42:03.021Z,1009.2
2022-10-19T08:43:20.041Z,1009.2
2022-10-19T08:44:37.003Z,1009.3
2022-10-19T08:45:54.116Z,1009.3
2022-10-19T08:47:12.203Z,1009.2
2022-10-19T08:48:28.025Z,1009.2
2022-10-19T08:49:45.067Z,1009.2
2022-10-19T08:51:02.452Z,1009.2
2022-10-19T08:52:19.031Z,1009.2
2022-10-19T08:53:36.021Z,1009.1
2022-10-19T08:54:53.045Z,1009.1
2022-10-19T08:56:12.361Z,1009.2
2022-10-19T08:57:27.060Z,1009.2
2022-10-19T08:58:44.026Z,1009.2
2022-10-19T09:00:01.079Z,1009.2
2022-10-19T09:01:18.217Z,1009.2
2022-10-19T09:02:35.531Z,1009.2
2022-10-19T09:03:56.006Z,1009.2
2022-10-19T09:05:09.088Z,1009.2
2022-10-19T09:06:26.097Z,1009.2
2022-10-19T09:07:43.080Z,1009.3
2022-10-19T09:09:00.419Z,1009.2
2022-10-19T09:10:17.120Z,1009.2
2022-10-19T09:11:34.081Z,1009.2
2022-10-19T09:12:52.837Z,1009.2
2022-10-19T09:14:08.050Z,1009.2
2022-10-19T09:15:25.107Z,1009.2
2022-10-19T09:16:42.086Z,1009.3
2022-10-19T09:17:59.098Z,1009.3
2022-10-19T09:19:16.077Z,1009.2
2022-10-19T09:20:33.304Z,1009.2
2022-10-19T09:21:50.098Z,1009.2
2022-10-19T09:23:11.101Z,1009.2
2022-10-19T09:24:24.074Z,1009.3
2022-10-19T09:25:41.091Z,1009.3
2022-10-19T09:26:58.087Z,1009.4
2022-10-19T09:28:15.096Z,1009.5
2022-10-19T09:29:32.053Z,1009.5
2022-10-19T09:30:49.097Z,1009.5
2022-10-19T09:32:06.129Z,1009.5
2022-10-19T09:33:23.160Z,1009.5
2022-10-19T09:34:40.089Z,1009.5
2022-10-19T09:35:57.075Z,1009.5
2022-10-19T09:37:20.139Z,1009.5
2022-10-19T09:38:31.091Z,1009.5
2022-10-19T09:39:52.320Z,1009.5
2022-10-19T09:41:05.105Z,1009.5
2022-10-19T09:42:22.168Z,1009.5
2022-10-19T09:43:39.096Z,1009.5
2022-10-19T09:44:56.129Z,1009.5
2022-10-19T09:46:19.637Z,1009.5
2022-10-19T09:47:30.114Z,1009.6
2022-10-19T09:48:47.147Z,1009.6
2022-10-19T09:50:04.174Z,1009.6
2022-10-19T09:51:21.122Z,1009.5
2022-10-19T09:52:38.148Z,1009.5
2022-10-19T09:53:55.137Z,1009.5
2022-10-19T09:55:12.285Z,1009.6
2022-10-19T09:56:29.117Z,1009.6
2022-10-19T09:57:46.161Z,1009.6
2022-10-19T09:59:03.108Z,1009.6
2022-10-19T10:00:20.147Z,1009.5
2022-10-19T10:01:40.032Z,1009.5
2022-10-19T10:02:54.169Z,1009.5
2022-10-19T10:04:11.162Z,1009.6
2022-10-19T10:05:28.266Z,1009.6
2022-10-19T10:06:45.159Z,1009.6
2022-10-19T10:08:02.286Z,1009.6
2022-10-19T10:09:19.154Z,1009.7
2022-10-19T10:10:36.202Z,1009.7
2022-10-19T10:13:10.154Z,1009.7
2022-10-19T10:14:27.142Z,1009.7
2022-10-19T10:15:44.243Z,1009.7
2022-10-19T10:17:01.142Z,1009.7
2022-10-19T10:18:18.183Z,1009.7
2022-10-19T10:19:35.151Z,1009.6
2022-10-19T10:20:52.740Z,1009.6
2022-10-19T10:22:10.156Z,1009.6
2022-10-19T10:23:27.164Z,1009.6
2022-10-19T10:24:44.146Z,1009.6
2022-10-19T10:26:01.189Z,1009.7
2022-10-19T10:27:18.217Z,1009.6
2022-10-19T10:28:35.157Z,1009.7
2022-10-19T10:29:52.182Z,1009.7
2022-10-19T10:31:09.165Z,1009.7
2022-10-19T10:32:26.179Z,1009.5
2022-10-19T10:33:45.246Z,1009.6
2022-10-19T10:35:01.412Z,1009.6
2022-10-19T10:36:17.679Z,1009.6
2022-10-19T10:37:34.457Z,1009.6
2022-10-19T10:38:51.594Z,1009.6
2022-10-19T10:40:08.254Z,1009.6
2022-10-19T10:41:25.241Z,1009.7
2022-10-19T10:42:42.680Z,1009.7
2022-10-19T10:44:00.793Z,1009.6
2022-10-19T10:45:16.240Z,1009.6
2022-10-19T10:46:33.193Z,1009.6
2022-10-19T10:47:50.223Z,1009.7
2022-10-19T10:49:07.289Z,1009.7
2022-10-19T10:50:24.255Z,1009.6
2022-10-19T10:51:41.229Z,1009.6
2022-10-19T10:52:58.231Z,1009.6
2022-10-19T10:54:15.301Z,1009.6
2022-10-19T10:55:32.230Z,1009.6
2022-10-19T10:56:49.255Z,1009.6
2022-10-19T10:58:06.262Z,1009.6
2022-10-19T10:59:23.197Z,1009.6
2022-10-19T11:00:40.271Z,1009.6
2022-10-19T11:01:57.727Z,1009.6
2022-10-19T11:03:14.221Z,1009.6
2022-10-19T11:04:31.235Z,1009.6
2022-10-19T11:05:48.341Z,1009.6
2022-10-19T11:07:05.205Z,1009.6
2022-10-19T11:08:22.322Z,1009.6
2022-10-19T11:09:39.213Z,1009.6
2022-10-19T11:10:56.247Z,1009.6
2022-10-19T11:12:13.260Z,1009.7
2022-10-19T11:13:30.384Z,1009.7
2022-10-19T11:14:47.300Z,1009.7
2022-10-19T11:16:04.329Z,1009.7
2022-10-19T11:17:21.218Z,1009.7
2022-10-19T11:18:38.226Z,1009.7
2022-10-19T11:19:55.298Z,1009.7
2022-10-19T11:21:12.354Z,1009.7
2022-10-19T11:22:29.272Z,1009.7
2022-10-19T11:23:46.312Z,1009.7
2022-10-19T11:25:03.351Z,1009.7
2022-10-19T11:26:20.391Z,1009.7
2022-10-19T11:27:37.580Z,1009.7
2022-10-19T11:28:54.350Z,1009.7
2022-10-19T11:30:11.382Z,1009.7
2022-10-19T11:31:29.632Z,1009.7
2022-10-19T11:32:45.992Z,1009.6
2022-10-19T11:34:02.653Z,1009.7
2022-10-19T11:35:19.285Z,1009.6
2022-10-19T11:36:36.304Z,1009.7
2022-10-19T11:38:14.140Z,1009.7
2022-10-19T11:39:10.272Z,1009.7
2022-10-19T11:40:27.562Z,1009.7
2022-10-19T11:41:44.355Z,1009.7
2022-10-19T11:43:01.276Z,1009.7
2022-10-19T11:44:18.262Z,1009.7
2022-10-19T11:45:35.269Z,1009.7
2022-10-19T11:46:52.559Z,1009.7
2022-10-19T11:48:09.294Z,1009.7
2022-10-19T11:49:26.277Z,1009.7
2022-10-19T11:50:44.183Z,1009.7
2022-10-19T11:52:00.475Z,1009.7
2022-10-19T11:53:17.380Z,1009.7
2022-10-19T11:54:34.308Z,1009.7
2022-10-19T11:55:51.293Z,1009.7
2022-10-19T11:57:11.335Z,1009.7
2022-10-19T11:58:25.286Z,1009.6
2022-10-19T11:59:42.696Z,1009.6
2022-10-19T12:00:59.311Z,1009.6
2022-10-19T12:02:16.342Z,1009.6
2022-10-19T12:03:33.292Z,1009.6
2022-10-19T12:04:50.324Z,1009.6
2022-10-19T12:06:07.378Z,1009.6
2022-10-19T12:07:24.309Z,1009.6
2022-10-19T12:08:41.399Z,1009.7
2022-10-19T12:09:58.415Z,1009.7
2022-10-19T12:11:15.324Z,1009.7
2022-10-19T12:12:32.692Z,1009.6
2022-10-19T12:13:49.299Z,1009.7
2022-10-19T12:15:06.716Z,1009.7
2022-10-19T12:16:23.315Z,1009.7
2022-10-19T12:17:40.325Z,1009.7
2022-10-19T12:18:57.632Z,1009.7
2022-10-19T12:20:16.087Z,1009.7
2022-10-19T12:21:31.418Z,1009.7
2022-10-19T12:22:48.316Z,1009.7
2022-10-19T12:24:05.362Z,1009.7
2022-10-19T12:25:23.087Z,1009.7
2022-10-19T12:26:40.341Z,1009.7
2022-10-19T12:27:57.365Z,1009.7
2022-10-19T12:29:14.331Z,1009.7
2022-10-19T12:30:31.363Z,1009.7
2022-10-19T12:31:48.378Z,1009.7
2022-10-19T12:33:05.345Z,1009.7
2022-10-19T12:34:22.333Z,1009.7
2022-10-19T12:35:39.423Z,1009.7
2022-10-19T12:36:56.380Z,1009.7
2022-10-19T12:38:13.572Z,1009.7
2022-10-19T12:39:30.388Z,1009.7
2022-10-19T12:40:47.707Z,1009.7
2022-10-19T12:42:04.361Z,1009.7
2022-10-19T12:43:21.398Z,1009.7
2022-10-19T12:44:38.356Z,1009.8
2022-10-19T12:45:55.400Z,1009.8
2022-10-19T12:47:12.412Z,1009.8
2022-10-19T12:48:29.406Z,1009.7
2022-10-19T12:49:46.355Z,1009.7
2022-10-19T12:51:03.420Z,1009.7
2022-10-19T12:52:20.446Z,1009.7
2022-10-19T12:53:37.382Z,1009.7
2022-10-19T12:54:54.389Z,1009.8
2022-10-19T12:56:11.372Z,1009.8
2022-10-19T12:57:28.449Z,1009.7
2022-10-19T12:58:47.486Z,1009.7
2022-10-19T13:00:02.497Z,1009.7
2022-10-19T13:01:19.461Z,1009.8
2022-10-19T13:02:36.470Z,1009.8
2022-10-19T13:03:53.430Z,1009.8
2022-10-19T13:05:10.384Z,1009.8
2022-10-19T13:06:27.878Z,1009.7
2022-10-19T13:07:45.531Z,1009.7
2022-10-19T13:09:02.510Z,1009.8
2022-10-19T13:10:19.445Z,1009.8
2022-10-19T13:11:36.534Z,1009.8
2022-10-19T13:12:53.473Z,1009.8
2022-10-19T13:14:10.430Z,1009.8
2022-10-19T13:15:27.610Z,1009.8
2022-10-19T13:16:44.464Z,1009.8
2022-10-19T13:18:01.555Z,1009.8
2022-10-19T13:19:18.539Z,1009.8
2022-10-19T13:20:35.453Z,1009.8
2022-10-19T13:21:52.769Z,1009.8
2022-10-19T13:23:10.588Z,1009.8
2022-10-19T13:24:27.528Z,1009.7
2022-10-19T13:25:44.421Z,1009.7
2022-10-19T13:27:01.457Z,1009.7
2022-10-19T13:28:18.462Z,1009.7
2022-10-19T13:29:35.467Z,1009.7
2022-10-19T13:30:52.478Z,1009.7
2022-10-19T13:32:09.778Z,1009.7
2022-10-19T13:33:27.486Z,1009.7
2022-10-19T13:34:44.446Z,1009.6
2022-10-19T13:36:01.740Z,1009.7
2022-10-19T13:37:18.589Z,1009.6
2022-10-19T13:39:52.432Z,1009.6
2022-10-19T13:41:10.623Z,1009.5
2022-10-19T13:42:27.499Z,1009.5
2022-10-19T13:43:44.449Z,1009.6
2022-10-19T13:45:01.475Z,1009.6
2022-10-19T13:46:18.495Z,1009.6
2022-10-19T13:47:35.733Z,1009.7
2022-10-19T13:48:52.535Z,1009.7
2022-10-19T13:50:09.477Z,1009.7
2022-10-19T13:51:26.482Z,1009.7
2022-10-19T13:52:43.586Z,1009.7
2022-10-19T13:54:00.499Z,1009.7
2022-10-19T13:55:17.491Z,1009.7
2022-10-19T13:56:34.552Z,1009.7
2022-10-19T13:57:53.142Z,1009.7
2022-10-19T13:59:08.529Z,1009.7
2022-10-19T14:00:26.537Z,1009.7
2022-10-19T14:01:43.566Z,1009.7
2022-10-19T14:03:00.483Z,1009.7
2022-10-19T14:04:17.546Z,1009.6
2022-10-19T14:05:34.535Z,1009.6
2022-10-19T14:06:51.481Z,1009.6
2022-10-19T14:08:08.498Z,1009.5
2022-10-19T14:09:25.588Z,1009.5
2022-10-19T14:10:59.925Z,1009.5
2022-10-19T14:11:59.497Z,1009.5
2022-10-19T14:13:16.489Z,1009.5
2022-10-19T14:14:33.552Z,1009.5
2022-10-19T14:15:50.590Z,1009.5
2022-10-19T14:17:07.534Z,1009.5
2022-10-19T14:18:24.498Z,1009.5
2022-10-19T14:19:41.499Z,1009.5
2022-10-19T14:20:58.920Z,1009.5
2022-10-19T14:22:15.508Z,1009.5
2022-10-19T14:23:32.586Z,1009.6
2022-10-19T14:24:49.547Z,1009.6
2022-10-19T14:26:06.558Z,1009.5
2022-10-19T14:27:23.515Z,1009.5
2022-10-19T14:28:40.520Z,1009.6
2022-10-19T14:29:57.509Z,1009.6
2022-10-19T14:31:14.530Z,1009.6
2022-10-19T14:32:31.581Z,1009.6
2022-10-19T14:33:48.517Z,1009.7
2022-10-19T14:35:05.577Z,1009.6
2022-10-19T14:36:22.508Z,1009.6
2022-10-19T14:37:39.599Z,1009.6
2022-10-19T14:38:56.577Z,1009.6
2022-10-19T14:40:13.785Z,1009.7
2022-10-19T14:41:30.609Z,1009.6
2022-10-19T14:42:47.595Z,1009.7
2022-10-19T14:44:04.547Z,1009.6
2022-10-19T14:45:21.677Z,1009.6
2022-10-19T14:46:38.563Z,1009.6
2022-10-19T14:47:55.578Z,1009.6
2022-10-19T14:49:12.541Z,1009.6
2022-10-19T14:50:29.565Z,1009.6
2022-10-19T14:51:46.834Z,1009.6
2022-10-19T14:53:03.546Z,1009.5
2022-10-19T14:54:20.545Z,1009.5
2022-10-19T14:55:37.599Z,1009.5
2022-10-19T14:56:54.643Z,1009.6
2022-10-19T14:58:11.543Z,1009.6
2022-10-19T14:59:28.612Z,1009.6
2022-10-19T15:00:45.580Z,1009.5
2022-10-19T15:02:02.624Z,1009.5
2022-10-19T15:03:19.616Z,1009.5
2022-10-19T15:04:36.552Z,1009.5
2022-10-19T15:05:53.561Z,1009.5
2022-10-19T15:07:10.599Z,1009.5
2022-10-19T15:08:27.682Z,1009.5
2022-10-19T15:09:48.070Z,1009.5
2022-10-19T15:11:01.594Z,1009.6
2022-10-19T15:12:18.586Z,1009.6
2022-10-19T15:13:35.608Z,1009.6
2022-10-19T15:14:52.607Z,1009.5
2022-10-19T15:16:09.579Z,1009.5
2022-10-19T15:17:26.579Z,1009.5
2022-10-19T15:18:49.405Z,1009.6
2022-10-19T15:20:00.773Z,1009.6
2022-10-19T15:21:17.625Z,1009.6
2022-10-19T15:22:34.967Z,1009.6
2022-10-19T15:23:51.633Z,1009.6
2022-10-19T15:25:08.633Z,1009.6
2022-10-19T15:26:25.611Z,1009.6
2022-10-19T15:27:42.810Z,1009.7
2022-10-19T15:28:59.606Z,1009.7
2022-10-19T15:30:16.659Z,1009.7
2022-10-19T15:31:33.599Z,1009.7
2022-10-19T15:32:50.606Z,1009.7
2022-10-19T15:34:07.635Z,1009.7
2022-10-19T15:35:24.666Z,1009.7
2022-10-19T15:36:41.638Z,1009.7
2022-10-19T15:37:58.624Z,1009.7
2022-10-19T15:39:32.803Z,1009.7
2022-10-19T15:40:34.709Z,1009.7
2022-10-19T15:41:52.645Z,1009.7
2022-10-19T15:43:09.627Z,1009.8
2022-10-19T15:44:26.638Z,1009.8
2022-10-19T15:45:43.709Z,1009.7
2022-10-19T15:47:00.661Z,1009.7
2022-10-19T15:48:17.696Z,1009.7
2022-10-19T15:49:34.692Z,1009.7
2022-10-19T15:50:51.646Z,1009.7
2022-10-19T15:52:08.670Z,1009.7
2022-10-19T15:53:25.628Z,1009.7
2022-10-19T15:54:42.675Z,1009.7
2022-10-19T15:55:59.669Z,1009.7
2022-10-19T15:57:16.668Z,1009.8
2022-10-19T15:58:33.683Z,1009.8
2022-10-19T15:59:50.688Z,1009.8
2022-10-19T16:01:07.692Z,1009.8
2022-10-19T16:02:24.640Z,1009.8
2022-10-19T16:03:41.639Z,1009.8
2022-10-19T16:04:58.724Z,1009.9
2022-10-19T16:06:15.646Z,1009.9
2022-10-19T16:07:32.712Z,1009.9
2022-10-19T16:08:49.708Z,1009.8
2022-10-19T16:10:06.858Z,1009.9
2022-10-19T16:11:23.679Z,1009.9
2022-10-19T16:12:40.688Z,1009.9
2022-10-19T16:13:57.664Z,1010
2022-10-19T16:15:14.922Z,1010
2022-10-19T16:16:31.657Z,1010
2022-10-19T16:17:48.714Z,1010
2022-10-19T16:19:05.676Z,1010